Time;durP1;ratioP1;P1;durP2;ratioP2;P2;SDS_P1;SDS_P2;PMS_P1;PMS_P2;Temp;Humidity;BMP_temperature;BMP_pressure;BME280_temperature;BME280_humidity;BME280_pressure;Samples;Min_cycle;Max_cycle;Signal;HPM_P1;HPM_P2
2021/03/08 00:00:18;;;;;;;71.97;34.08;;;3.10;99.90;;;;;;5090827;28;20016;-68
2021/03/08 00:02:45;;;;;;;71.85;34.78;;;3.20;99.90;;;;;;5091481;28;20063;-68
2021/03/08 00:05:12;;;;;;;70.28;35.38;;;3.10;99.90;;;;;;5090973;28;20050;-70
2021/03/08 00:07:40;;;;;;;70.53;33.33;;;3.10;99.90;;;;;;5090872;28;20483;-70
2021/03/08 00:10:06;;;;;;;75.68;34.95;;;3.20;99.90;;;;;;5092018;28;20475;-69
2021/03/08 00:12:32;;;;;;;73.88;33.60;;;3.10;99.90;;;;;;5095482;28;20021;-69
2021/03/08 00:14:58;;;;;;;71.25;33.35;;;3.10;99.90;;;;;;5094667;28;20035;-69
2021/03/08 00:17:24;;;;;;;68.47;33.42;;;3.10;99.90;;;;;;5095327;28;20518;-69
2021/03/08 00:19:50;;;;;;;72.45;34.33;;;3.10;99.90;;;;;;5094978;28;20032;-69
2021/03/08 00:22:15;;;;;;;68.40;32.83;;;3.20;99.90;;;;;;5108605;28;20036;-69
2021/03/08 00:24:41;;;;;;;70.40;33.00;;;3.10;99.90;;;;;;5094983;28;20016;-69
2021/03/08 00:27:07;;;;;;;80.25;34.17;;;3.10;99.90;;;;;;5094145;28;20035;-68
2021/03/08 00:29:32;;;;;;;72.15;34.92;;;3.10;99.90;;;;;;5095376;28;20016;-68
2021/03/08 00:32:01;;;;;;;75.68;33.42;;;3.20;99.90;;;;;;5094975;28;20020;-69
2021/03/08 00:34:27;;;;;;;70.47;34.67;;;3.10;99.90;;;;;;5094155;28;20024;-69
2021/03/08 00:36:52;;;;;;;74.10;36.33;;;3.20;99.90;;;;;;5094946;28;20046;-69
2021/03/08 00:39:18;;;;;;;71.50;33.10;;;3.20;99.90;;;;;;5094813;28;20020;-69
2021/03/08 00:41:43;;;;;;;74.35;34.42;;;3.20;99.90;;;;;;5094441;28;20036;-69
2021/03/08 00:44:09;;;;;;;73.10;33.78;;;3.20;99.90;;;;;;5094788;28;20379;-70
2021/03/08 00:46:35;;;;;;;70.05;33.67;;;3.10;99.90;;;;;;5094676;28;20020;-69
2021/03/08 00:49:01;;;;;;;72.55;34.58;;;3.20;99.90;;;;;;5093623;28;20024;-70
2021/03/08 00:51:26;;;;;;;75.07;34.70;;;3.20;99.90;;;;;;5094732;28;20043;-70
2021/03/08 00:53:52;;;;;;;70.65;32.92;;;3.20;99.90;;;;;;5094320;28;20024;-70
2021/03/08 00:56:20;;;;;;;74.53;35.13;;;3.20;99.90;;;;;;5093914;28;20024;-68
2021/03/08 00:58:45;;;;;;;71.18;33.00;;;3.20;99.90;;;;;;5095008;28;20020;-69
2021/03/08 01:01:11;;;;;;;72.80;35.63;;;3.30;99.90;;;;;;5096653;28;20059;-70
2021/03/08 01:03:36;;;;;;;72.93;33.05;;;3.20;99.90;;;;;;5096728;28;20032;-70
2021/03/08 01:06:02;;;;;;;65.97;32.30;;;3.30;99.90;;;;;;5094134;28;20025;-69
2021/03/08 01:08:29;;;;;;;65.72;32.63;;;3.30;99.90;;;;;;5094459;28;20468;-69
2021/03/08 01:10:55;;;;;;;72.95;34.45;;;3.30;99.90;;;;;;5094388;28;20107;-69
2021/03/08 01:13:20;;;;;;;70.88;33.85;;;3.30;99.90;;;;;;5096562;28;20063;-69
2021/03/08 01:15:50;;;;;;;67.35;33.45;;;3.30;99.90;;;;;;5096615;28;20012;-69
2021/03/08 01:18:16;;;;;;;69.50;32.40;;;3.20;99.90;;;;;;5095515;28;20315;-69
2021/03/08 01:20:42;;;;;;;65.18;32.95;;;3.20;99.90;;;;;;5094600;28;20574;-69
2021/03/08 01:23:07;;;;;;;67.28;32.97;;;3.20;99.90;;;;;;5106238;28;20076;-69
2021/03/08 01:25:33;;;;;;;70.65;32.58;;;3.20;99.90;;;;;;5092965;28;20024;-69
2021/03/08 01:27:59;;;;;;;64.75;31.13;;;3.20;99.90;;;;;;5093871;28;20024;-69
2021/03/08 01:30:28;;;;;;;64.90;32.55;;;3.20;99.90;;;;;;5093218;28;20031;-69
2021/03/08 01:32:53;;;;;;;63.88;32.00;;;3.20;99.90;;;;;;5093553;28;20031;-69
2021/03/08 01:35:21;;;;;;;67.70;32.15;;;3.20;99.90;;;;;;5093569;28;20024;-69
2021/03/08 01:37:47;;;;;;;65.28;32.88;;;3.20;99.90;;;;;;5093028;28;20047;-69
2021/03/08 01:40:15;;;;;;;65.95;32.17;;;3.20;99.90;;;;;;5093633;28;20055;-69
2021/03/08 01:42:41;;;;;;;66.05;32.20;;;3.10;99.90;;;;;;5093707;28;20034;-70
2021/03/08 01:45:10;;;;;;;68.82;32.53;;;3.20;99.90;;;;;;5092775;28;20024;-69
2021/03/08 01:47:36;;;;;;;64.97;31.02;;;3.20;99.90;;;;;;5093870;28;20060;-70
2021/03/08 01:50:04;;;;;;;72.03;33.55;;;3.20;99.90;;;;;;5092565;28;20486;-69
2021/03/08 01:52:29;;;;;;;68.32;31.40;;;3.20;99.90;;;;;;5093238;28;20028;-70
2021/03/08 01:54:55;;;;;;;68.18;33.13;;;3.20;99.90;;;;;;5093226;28;20070;-70
2021/03/08 01:57:21;;;;;;;70.88;33.22;;;3.20;99.90;;;;;;5093668;28;20123;-69
2021/03/08 01:59:46;;;;;;;68.22;30.65;;;3.20;99.90;;;;;;5092449;28;20024;-70
2021/03/08 02:02:12;;;;;;;71.03;33.25;;;3.20;99.90;;;;;;5092715;28;20124;-70
2021/03/08 02:04:37;;;;;;;64.95;32.28;;;3.20;99.90;;;;;;5093445;28;20028;-69
2021/03/08 02:07:03;;;;;;;69.53;32.90;;;3.20;99.90;;;;;;5092280;28;20438;-69
2021/03/08 02:09:29;;;;;;;70.47;33.05;;;3.20;99.90;;;;;;5093432;28;20028;-69
2021/03/08 02:12:03;;;;;;;68.32;31.73;;;3.20;99.90;;;;;;5107203;28;20487;-69
2021/03/08 02:15:06;;;;;;;68.18;31.48;;;3.20;99.90;;;;;;5092593;28;20025;-69
2021/03/08 02:17:45;;;;;;;66.03;30.65;;;3.20;99.90;;;;;;5093001;28;20446;-69
2021/03/08 02:20:41;;;;;;;65.55;31.92;;;3.20;99.90;;;;;;5092106;28;20032;-68
2021/03/08 02:23:40;;;;;;;67.70;33.38;;;3.30;99.90;;;;;;5092743;28;20032;-69
2021/03/08 02:26:32;;;;;;;69.43;32.38;;;3.30;99.90;;;;;;5096274;28;20023;-69
2021/03/08 02:29:08;;;;;;;68.00;32.17;;;3.20;99.90;;;;;;5099242;28;20020;-69
2021/03/08 02:31:37;;;;;;;73.15;34.28;;;3.30;99.90;;;;;;5092888;28;20096;-69
2021/03/08 02:34:18;;;;;;;69.15;33.40;;;3.30;99.90;;;;;;5091818;28;20051;-70
2021/03/08 02:36:45;;;;;;;;;;;3.30;99.90;;;;;;5093442;28;20020;-70
2021/03/08 02:39:18;;;;;;;65.97;31.98;;;3.20;99.90;;;;;;5092466;28;19904;-69
2021/03/08 02:41:46;;;;;;;69.63;32.03;;;3.30;99.90;;;;;;5091980;28;20035;-69
2021/03/08 02:44:18;;;;;;;65.00;33.42;;;3.30;99.90;;;;;;5092327;28;20055;-70
2021/03/08 02:46:47;;;;;;;66.10;31.25;;;3.30;99.90;;;;;;5101491;28;20024;-70
2021/03/08 02:49:17;;;;;;;70.85;32.80;;;3.30;99.90;;;;;;5103231;28;20046;-69
2021/03/08 02:51:48;;;;;;;68.97;32.13;;;3.30;99.90;;;;;;5094523;28;20027;-69
2021/03/08 02:54:17;;;;;;;66.78;31.67;;;3.30;99.90;;;;;;5112714;28;20058;-69
2021/03/08 02:56:46;;;;;;;67.35;32.83;;;3.30;99.90;;;;;;5098138;28;20012;-69
2021/03/08 02:59:13;;;;;;;72.97;33.30;;;3.30;99.90;;;;;;5112933;28;20035;-70
2021/03/08 03:01:41;;;;;;;67.60;33.47;;;3.30;99.90;;;;;;5110931;28;20102;-69
2021/03/08 03:04:09;;;;;;;68.20;31.25;;;3.30;99.90;;;;;;5091675;28;20052;-69
2021/03/08 03:06:37;;;;;;;62.42;32.28;;;3.30;99.90;;;;;;5109958;28;20027;-69
2021/03/08 03:09:10;;;;;;;59.00;30.25;;;3.30;99.90;;;;;;5111931;28;20482;-68
2021/03/08 03:11:38;;;;;;;67.18;33.55;;;3.30;99.90;;;;;;5114014;28;20042;-69
2021/03/08 03:14:05;;;;;;;71.00;31.80;;;3.30;99.90;;;;;;5113017;28;20469;-69
2021/03/08 03:16:32;;;;;;;61.47;31.33;;;3.30;99.90;;;;;;5114772;28;20024;-70
2021/03/08 03:19:00;;;;;;;58.67;29.85;;;3.30;99.90;;;;;;5092104;28;20052;-69
2021/03/08 03:21:30;;;;;;;69.22;32.00;;;3.30;99.90;;;;;;5091982;28;20040;-69
2021/03/08 03:23:57;;;;;;;68.30;32.05;;;3.30;99.90;;;;;;5111272;28;20102;-69
2021/03/08 03:26:30;;;;;;;64.30;29.90;;;3.30;99.90;;;;;;5112529;28;20059;-69
2021/03/08 03:28:56;;;;;;;60.92;29.58;;;3.30;99.90;;;;;;5092866;28;20135;-69
2021/03/08 03:31:23;;;;;;;63.20;30.75;;;3.30;99.90;;;;;;5091429;28;20027;-69
2021/03/08 03:33:49;;;;;;;63.05;30.50;;;3.30;99.90;;;;;;5091466;28;20048;-70
2021/03/08 03:36:15;;;;;;;61.33;30.05;;;3.30;99.90;;;;;;5091976;28;20107;-69
2021/03/08 03:38:41;;;;;;;66.22;32.22;;;3.40;99.90;;;;;;5091339;28;20121;-69
2021/03/08 03:41:08;;;;;;;61.92;29.33;;;3.40;99.90;;;;;;5091560;28;20050;-69
2021/03/08 03:43:34;;;;;;;65.43;31.10;;;3.30;99.90;;;;;;5091881;28;20502;-70
2021/03/08 03:46:04;;;;;;;61.92;30.90;;;3.40;99.90;;;;;;5093437;28;20027;-69
2021/03/08 03:48:33;;;;;;;64.30;29.75;;;3.40;99.90;;;;;;5095961;28;20020;-69
2021/03/08 03:50:59;;;;;;;64.82;29.25;;;3.40;99.90;;;;;;5095499;28;20036;-69
2021/03/08 03:53:25;;;;;;;60.33;29.95;;;3.40;99.90;;;;;;5096014;28;20089;-70
2021/03/08 03:55:51;;;;;;;66.00;31.50;;;3.40;99.90;;;;;;5096976;28;20464;-70
2021/03/08 03:58:25;;;;;;;60.35;30.05;;;3.40;99.90;;;;;;5115256;28;20443;-69
2021/03/08 04:01:08;;;;;;;63.60;31.08;;;3.40;99.90;;;;;;5115518;28;20036;-69
2021/03/08 04:04:00;;;;;;;64.43;28.80;;;3.40;99.90;;;;;;5115950;28;20110;-69
2021/03/08 04:06:33;;;;;;;61.20;29.02;;;3.40;99.90;;;;;;5115276;28;20030;-69
2021/03/08 04:08:58;;;;;;;59.90;29.65;;;3.40;99.90;;;;;;5115787;28;20019;-69
2021/03/08 04:11:29;;;;;;;59.95;28.48;;;3.40;99.90;;;;;;5117026;28;20027;-69
2021/03/08 04:13:57;;;;;;;57.60;29.25;;;3.40;99.90;;;;;;5105318;28;20024;-70
2021/03/08 04:16:24;;;;;;;63.97;29.15;;;3.40;99.90;;;;;;5095936;28;20107;-71
2021/03/08 04:18:51;;;;;;;58.85;29.13;;;3.40;99.90;;;;;;5096123;28;20057;-70
2021/03/08 04:21:18;;;;;;;60.08;26.95;;;3.40;99.90;;;;;;5094888;28;20046;-70
2021/03/08 04:23:45;;;;;;;54.22;29.38;;;3.40;99.90;;;;;;5095634;28;20024;-70
2021/03/08 04:26:12;;;;;;;55.85;26.92;;;3.30;99.90;;;;;;5094451;28;20028;-69
2021/03/08 04:28:40;;;;;;;64.20;29.13;;;3.30;99.90;;;;;;5095007;28;20352;-70
2021/03/08 04:31:06;;;;;;;56.33;27.20;;;3.30;99.90;;;;;;5095096;28;20410;-69
2021/03/08 04:33:35;;;;;;;53.85;26.90;;;3.30;99.90;;;;;;5098225;28;20761;-69
2021/03/08 04:36:02;;;;;;;54.28;27.67;;;3.30;99.90;;;;;;5115336;28;20015;-69
2021/03/08 04:38:29;;;;;;;54.80;28.40;;;3.20;99.90;;;;;;5098937;28;20036;-69
2021/03/08 04:40:56;;;;;;;50.83;27.55;;;3.30;99.90;;;;;;5094229;28;20043;-72
2021/03/08 04:43:25;;;;;;;58.80;28.63;;;3.30;99.90;;;;;;5094959;28;20032;-70
2021/03/08 04:45:58;;;;;;;56.50;28.40;;;3.20;99.90;;;;;;5095299;28;20353;-69
2021/03/08 04:48:27;;;;;;;56.17;28.92;;;3.30;99.90;;;;;;5094677;28;20024;-69
2021/03/08 04:50:53;;;;;;;61.90;29.15;;;3.30;99.90;;;;;;5101283;28;20027;-68
2021/03/08 04:53:19;;;;;;;56.75;28.55;;;3.30;99.90;;;;;;5115115;28;20023;-68
2021/03/08 04:55:47;;;;;;;57.25;27.38;;;3.30;99.90;;;;;;5113657;28;20111;-69
2021/03/08 04:58:12;;;;;;;57.42;29.25;;;3.20;99.90;;;;;;5093483;28;20440;-70
2021/03/08 05:00:38;;;;;;;55.15;27.90;;;3.30;99.90;;;;;;5093313;28;20020;-69
2021/03/08 05:03:05;;;;;;;52.88;26.88;;;3.20;99.90;;;;;;5093641;28;20034;-70
2021/03/08 05:05:31;;;;;;;57.35;29.70;;;3.20;99.90;;;;;;5094236;28;20024;-69
2021/03/08 05:08:05;;;;;;;59.38;27.83;;;3.30;99.90;;;;;;5092485;28;20517;-69
2021/03/08 05:10:33;;;;;;;50.55;27.08;;;3.30;99.90;;;;;;5104088;28;20024;-69
2021/03/08 05:13:00;;;;;;;53.40;26.92;;;3.30;99.90;;;;;;5113983;28;20111;-69
2021/03/08 05:15:27;;;;;;;56.88;27.70;;;3.30;99.90;;;;;;5114224;28;20016;-69
2021/03/08 05:17:57;;;;;;;54.70;27.38;;;3.30;99.90;;;;;;5113476;28;20459;-69
2021/03/08 05:20:23;;;;;;;52.88;27.52;;;3.30;99.90;;;;;;5094083;28;20103;-68
2021/03/08 05:22:49;;;;;;;59.97;26.90;;;3.30;99.90;;;;;;5093288;28;20165;-71
2021/03/08 05:25:15;;;;;;;59.42;27.58;;;3.30;99.90;;;;;;5094054;28;20020;-70
2021/03/08 05:27:44;;;;;;;52.58;27.73;;;3.30;99.90;;;;;;5094181;28;20069;-70
2021/03/08 05:30:15;;;;;;;52.83;25.75;;;3.30;99.90;;;;;;5092815;28;20047;-70
2021/03/08 05:32:41;;;;;;;;;;;3.30;99.90;;;;;;5094349;28;20052;-70
2021/03/08 05:35:10;;;;;;;48.70;25.23;;;3.30;99.90;;;;;;5093323;28;19919;-69
2021/03/08 05:37:39;;;;;;;61.35;27.35;;;3.30;99.90;;;;;;5093171;28;20479;-69
2021/03/08 05:40:15;;;;;;;54.40;26.90;;;3.30;99.90;;;;;;5093278;28;20369;-69
2021/03/08 05:42:40;;;;;;;54.38;28.73;;;3.30;99.90;;;;;;5093926;28;20032;-69
2021/03/08 05:45:10;;;;;;;56.33;28.02;;;3.30;99.90;;;;;;5092647;28;20042;-69
2021/03/08 05:48:02;;;;;;;61.85;27.65;;;3.30;99.90;;;;;;5093643;28;20024;-70
2021/03/08 05:51:00;;;;;;;59.50;28.33;;;3.30;99.90;;;;;;5093597;28;20106;-69
2021/03/08 05:53:51;;;;;;;56.63;27.33;;;3.30;99.90;;;;;;5093576;28;20367;-70
2021/03/08 05:56:49;;;;;;;56.15;26.75;;;3.30;99.90;;;;;;5093712;28;20020;-69
2021/03/08 05:59:40;;;;;;;56.22;27.13;;;3.30;99.90;;;;;;5092584;28;20048;-69
2021/03/08 06:02:05;;;;;;;;;;;3.40;99.90;;;;;;5093145;28;20047;-70
2021/03/08 06:04:58;;;;;;;54.70;26.90;;;3.30;99.90;;;;;;5093282;28;19912;-69
2021/03/08 06:08:05;;;;;;;54.70;27.23;;;3.40;99.90;;;;;;5105844;28;20020;-70
2021/03/08 06:10:33;;;;;;;56.75;29.70;;;3.30;99.90;;;;;;5113650;28;20464;-70
2021/03/08 06:13:08;;;;;;;67.97;30.85;;;3.40;99.90;;;;;;5112564;28;20069;-69
2021/03/08 06:15:35;;;;;;;64.43;30.20;;;3.40;99.90;;;;;;5102645;27;20028;-69
2021/03/08 06:18:09;;;;;;;61.15;30.05;;;3.40;99.90;;;;;;5109080;28;20019;-69
2021/03/08 06:20:36;;;;;;;54.30;28.25;;;3.40;99.90;;;;;;5104286;28;20016;-70
2021/03/08 06:23:02;;;;;;;54.67;27.55;;;3.30;99.90;;;;;;5105177;28;20481;-69
2021/03/08 06:25:29;;;;;;;56.20;27.30;;;3.30;99.90;;;;;;5108329;28;20020;-69
2021/03/08 06:27:55;;;;;;;55.90;28.30;;;3.30;99.90;;;;;;5110140;28;20024;-70
2021/03/08 06:30:24;;;;;;;56.88;28.10;;;3.30;99.90;;;;;;5105154;28;20373;-71
2021/03/08 06:32:54;;;;;;;56.53;28.15;;;3.30;99.90;;;;;;5108714;28;20131;-70
2021/03/08 06:35:19;;;;;;;54.05;26.90;;;3.30;99.90;;;;;;5110237;28;20047;-70
2021/03/08 06:37:49;;;;;;;61.80;28.15;;;3.40;99.90;;;;;;5110605;28;20119;-70
2021/03/08 06:40:18;;;;;;;57.60;28.20;;;3.30;99.90;;;;;;5107873;28;20035;-69
2021/03/08 06:42:45;;;;;;;57.95;28.88;;;3.40;99.90;;;;;;5109862;28;20034;-69
2021/03/08 06:45:11;;;;;;;57.35;28.92;;;3.40;99.90;;;;;;5098211;28;20020;-69
2021/03/08 06:47:37;;;;;;;58.53;29.13;;;3.40;99.90;;;;;;5090949;28;20173;-69
2021/03/08 06:50:03;;;;;;;62.28;30.17;;;3.40;99.90;;;;;;5093421;28;20020;-69
2021/03/08 06:52:43;;;;;;;55.75;27.35;;;3.50;99.90;;;;;;5099853;28;20016;-69
2021/03/08 06:55:09;;;;;;;62.00;29.88;;;3.50;99.90;;;;;;5091381;28;20024;-69
2021/03/08 06:57:36;;;;;;;61.88;29.02;;;3.60;99.90;;;;;;5095306;28;20031;-69
2021/03/08 07:00:07;;;;;;;59.80;29.75;;;3.60;99.90;;;;;;5091123;28;20035;-69
2021/03/08 07:02:53;;;;;;;59.35;29.33;;;3.60;99.90;;;;;;5101729;28;20051;-70
2021/03/08 07:05:22;;;;;;;55.20;28.80;;;3.70;99.90;;;;;;5099924;28;20028;-69
2021/03/08 07:07:53;;;;;;;56.45;27.55;;;3.70;99.90;;;;;;5104082;28;20050;-70
2021/03/08 07:10:38;;;;;;;54.58;26.98;;;3.80;99.90;;;;;;5096994;28;20016;-70
2021/03/08 07:13:08;;;;;;;55.10;28.17;;;3.80;99.90;;;;;;5096630;28;20412;-70
2021/03/08 07:15:54;;;;;;;54.17;27.38;;;3.90;99.90;;;;;;5095196;28;20016;-70
2021/03/08 07:18:21;;;;;;;56.67;28.23;;;4.00;99.90;;;;;;5094609;28;20032;-69
2021/03/08 07:20:49;;;;;;;64.85;33.50;;;4.00;99.90;;;;;;5095348;28;20016;-70
2021/03/08 07:23:24;;;;;;;62.45;32.40;;;4.00;99.90;;;;;;5091594;28;20032;-70
2021/03/08 07:26:11;;;;;;;65.68;33.38;;;4.10;99.90;;;;;;5098576;28;20384;-69
2021/03/08 07:28:36;;;;;;;65.45;32.33;;;4.10;99.90;;;;;;5095284;28;20219;-69
2021/03/08 07:31:02;;;;;;;61.80;32.45;;;4.20;99.90;;;;;;5098020;28;20028;-70
2021/03/08 07:33:28;;;;;;;66.82;32.55;;;4.20;99.90;;;;;;5099120;28;20031;-70
2021/03/08 07:35:54;;;;;;;55.75;29.90;;;4.30;99.90;;;;;;5093549;28;20830;-70
2021/03/08 07:38:33;;;;;;;62.25;31.20;;;4.40;99.90;;;;;;5099029;28;20540;-74
2021/03/08 07:41:25;;;;;;;58.70;29.73;;;4.50;99.90;;;;;;5101491;28;20032;-74
2021/03/08 07:44:04;;;;;;;57.97;29.38;;;4.60;99.90;;;;;;5103044;28;20128;-74
2021/03/08 07:46:35;;;;;;;54.67;27.45;;;4.70;99.90;;;;;;5101789;28;20016;-74
2021/03/08 07:49:06;;;;;;;57.00;28.88;;;4.70;99.90;;;;;;5095422;28;20418;-74
2021/03/08 07:51:33;;;;;;;59.80;30.88;;;4.80;99.90;;;;;;5095876;28;20024;-74
2021/03/08 07:54:03;;;;;;;59.45;30.60;;;4.90;99.90;;;;;;5100992;28;20031;-76
2021/03/08 07:56:30;;;;;;;61.42;29.08;;;4.90;99.90;;;;;;5100800;28;20410;-73
2021/03/08 07:58:56;;;;;;;52.60;27.48;;;5.00;99.90;;;;;;5106761;28;20031;-74
2021/03/08 08:01:23;;;;;;;56.20;28.45;;;5.00;99.90;;;;;;5098898;28;20043;-75
2021/03/08 08:03:49;;;;;;;55.75;28.73;;;5.10;99.90;;;;;;5106099;28;20024;-74
2021/03/08 08:06:21;;;;;;;51.35;27.58;;;5.10;99.90;;;;;;5093789;28;20024;-73
2021/03/08 08:08:51;;;;;;;53.95;28.45;;;5.20;99.90;;;;;;5100390;28;20024;-73
2021/03/08 08:11:18;;;;;;;54.50;28.63;;;5.30;99.90;;;;;;5102163;28;20387;-74
2021/03/08 08:13:52;;;;;;;55.10;27.38;;;5.40;99.90;;;;;;5101586;28;20020;-72
2021/03/08 08:16:22;;;;;;;54.60;28.40;;;5.40;99.90;;;;;;5091920;28;20426;-73
2021/03/08 08:18:52;;;;;;;49.73;28.10;;;5.40;99.90;;;;;;5106598;28;20383;-74
2021/03/08 08:21:19;;;;;;;54.63;27.65;;;5.50;99.90;;;;;;5100254;28;20027;-74
2021/03/08 08:23:56;;;;;;;58.22;27.02;;;5.50;99.90;;;;;;5107687;28;20091;-72
2021/03/08 08:26:23;;;;;;;51.33;27.10;;;5.60;99.90;;;;;;5101000;28;20070;-74
2021/03/08 08:28:50;;;;;;;52.42;26.75;;;5.60;99.90;;;;;;5099694;28;20035;-74
2021/03/08 08:31:16;;;;;;;50.08;26.20;;;5.70;99.90;;;;;;5097624;28;20012;-73
2021/03/08 08:33:43;;;;;;;56.10;26.25;;;5.80;99.90;;;;;;5103195;28;20343;-71
2021/03/08 08:36:24;;;;;;;55.53;26.50;;;5.80;99.90;;;;;;5103679;28;20021;-73
2021/03/08 08:38:52;;;;;;;59.42;28.83;;;5.90;99.90;;;;;;5106895;28;20087;-73
2021/03/08 08:41:23;;;;;;;56.80;28.50;;;5.90;99.90;;;;;;5096261;28;20080;-73
2021/03/08 08:44:08;;;;;;;45.15;24.13;;;6.00;99.90;;;;;;5105611;28;20039;-72
2021/03/08 08:46:36;;;;;;;50.22;26.10;;;6.00;99.90;;;;;;5110603;28;20042;-72
2021/03/08 08:49:20;;;;;;;59.05;26.70;;;6.00;99.90;;;;;;5096410;28;20022;-73
2021/03/08 08:51:54;;;;;;;50.45;25.33;;;6.10;99.90;;;;;;5111750;28;20020;-74
2021/03/08 08:54:28;;;;;;;50.50;26.02;;;6.20;99.90;;;;;;5107780;28;20091;-72
2021/03/08 08:57:01;;;;;;;45.17;24.60;;;6.20;99.90;;;;;;5100442;28;20417;-73
2021/03/08 08:59:27;;;;;;;53.53;25.88;;;6.30;99.90;;;;;;5110868;28;20016;-75
2021/03/08 09:02:26;;;;;;;51.00;25.55;;;6.30;99.90;;;;;;5114726;28;20517;-73
2021/03/08 09:04:52;;;;;;;47.15;23.70;;;6.40;99.90;;;;;;5113211;28;20028;-72
2021/03/08 09:07:26;;;;;;;52.50;25.42;;;6.50;99.90;;;;;;5108583;28;20023;-72
2021/03/08 09:09:55;;;;;;;46.60;23.52;;;6.50;99.90;;;;;;5118563;28;20034;-73
2021/03/08 09:12:28;;;;;;;42.55;22.23;;;6.50;99.90;;;;;;5106075;28;20024;-74
2021/03/08 09:15:06;;;;;;;45.53;24.35;;;6.60;99.90;;;;;;5101599;28;20119;-72
2021/03/08 09:17:51;;;;;;;44.55;23.40;;;6.70;99.90;;;;;;5118585;28;20475;-74
2021/03/08 09:20:29;;;;;;;45.88;22.33;;;6.60;99.90;;;;;;5115990;28;20031;-74
2021/03/08 09:22:58;;;;;;;47.78;23.42;;;6.70;99.90;;;;;;5119774;28;20039;-74
2021/03/08 09:25:35;;;;;;;45.17;24.33;;;6.70;99.90;;;;;;5118275;28;20020;-74
2021/03/08 09:28:10;;;;;;;46.97;22.15;;;6.80;99.90;;;;;;5099844;28;20059;-74
2021/03/08 09:30:40;;;;;;;44.35;24.25;;;6.80;99.90;;;;;;5099515;28;20491;-75
2021/03/08 09:33:17;;;;;;;43.88;21.70;;;6.80;99.90;;;;;;5114257;28;20088;-74
2021/03/08 09:35:52;;;;;;;45.60;21.85;;;6.90;99.90;;;;;;5116872;28;20032;-74
2021/03/08 09:38:23;;;;;;;39.45;21.75;;;6.80;99.90;;;;;;5100121;28;20024;-74
2021/03/08 09:41:00;;;;;;;43.97;21.75;;;6.80;99.90;;;;;;5104960;28;20028;-75
2021/03/08 09:43:32;;;;;;;41.22;22.73;;;6.90;99.90;;;;;;5093533;28;20049;-73
2021/03/08 09:46:03;;;;;;;41.75;21.73;;;6.80;99.90;;;;;;5094921;28;20028;-73
2021/03/08 09:48:32;;;;;;;41.88;20.35;;;6.80;99.90;;;;;;5099640;28;20027;-73
2021/03/08 09:51:09;;;;;;;38.25;20.30;;;6.70;99.90;;;;;;5111660;28;20023;-74
2021/03/08 09:53:40;;;;;;;40.67;20.55;;;7.10;99.90;;;;;;5111709;28;20433;-75
2021/03/08 09:56:11;;;;;;;41.65;22.25;;;6.60;99.90;;;;;;5107341;28;20392;-74
2021/03/08 09:58:40;;;;;;;43.05;21.92;;;6.50;99.90;;;;;;5110327;28;20027;-73
2021/03/08 10:01:15;;;;;;;38.78;20.27;;;6.40;99.90;;;;;;5108816;28;20081;-73
2021/03/08 10:03:41;;;;;;;42.22;21.63;;;6.30;99.90;;;;;;5110943;28;20027;-75
2021/03/08 10:06:07;;;;;;;48.67;23.02;;;6.20;99.90;;;;;;5108843;28;20050;-74
2021/03/08 10:08:32;;;;;;;44.22;22.10;;;6.20;99.90;;;;;;5096458;28;20069;-73
2021/03/08 10:10:59;;;;;;;42.40;22.30;;;6.30;99.90;;;;;;5107874;28;20030;-73
2021/03/08 10:13:26;;;;;;;45.25;21.33;;;6.40;99.90;;;;;;5112547;28;20399;-74
2021/03/08 10:15:54;;;;;;;39.85;21.10;;;6.50;99.90;;;;;;5113065;28;20039;-75
2021/03/08 10:18:28;;;;;;;41.65;21.63;;;6.60;99.90;;;;;;5097858;28;20024;-74
2021/03/08 10:20:55;;;;;;;56.30;22.77;;;6.70;99.90;;;;;;5109302;28;20383;-74
2021/03/08 10:23:27;;;;;;;36.85;19.40;;;6.80;99.90;;;;;;5110022;28;20023;-73
2021/03/08 10:26:02;;;;;;;42.25;21.23;;;7.00;99.90;;;;;;5094217;28;20478;-73
2021/03/08 10:28:36;;;;;;;42.75;20.63;;;7.00;99.90;;;;;;5104130;28;20077;-73
2021/03/08 10:31:03;;;;;;;47.97;21.83;;;7.10;99.90;;;;;;5107181;28;20035;-73
2021/03/08 10:33:29;;;;;;;38.58;21.10;;;7.10;99.90;;;;;;5100736;28;20076;-74
2021/03/08 10:35:56;;;;;;;45.50;22.38;;;7.20;99.90;;;;;;5104311;28;20092;-73
2021/03/08 10:38:33;;;;;;;47.83;22.15;;;7.20;99.90;;;;;;5102845;28;20015;-74
2021/03/08 10:41:04;;;;;;;38.47;20.38;;;7.30;99.90;;;;;;5091204;28;20028;-74
2021/03/08 10:43:30;;;;;;;38.70;20.50;;;7.50;99.90;;;;;;5092169;28;20032;-74
2021/03/08 10:46:00;;;;;;;36.78;19.58;;;7.60;99.90;;;;;;5096382;28;20028;-74
2021/03/08 10:48:27;;;;;;;36.67;19.13;;;7.70;99.90;;;;;;5110206;28;20016;-74
2021/03/08 10:50:55;;;;;;;40.88;20.08;;;7.80;99.90;;;;;;5093957;28;20072;-74
2021/03/08 10:53:22;;;;;;;37.60;20.65;;;7.80;99.90;;;;;;5100063;28;20059;-73
2021/03/08 10:55:49;;;;;;;41.67;20.23;;;7.90;99.90;;;;;;5095174;28;20103;-74
2021/03/08 10:58:15;;;;;;;35.83;20.77;;;8.00;99.90;;;;;;5099699;28;20400;-72
2021/03/08 11:00:43;;;;;;;42.33;20.63;;;8.00;99.90;;;;;;5100996;28;20040;-74
2021/03/08 11:03:37;;;;;;;39.10;21.05;;;8.10;99.90;;;;;;5095845;28;20440;-74
2021/03/08 11:06:04;;;;;;;36.88;20.35;;;8.10;99.90;;;;;;5102081;28;20024;-72
2021/03/08 11:08:30;;;;;;;35.45;19.75;;;8.20;99.90;;;;;;5101816;28;20012;-73
2021/03/08 11:10:55;;;;;;;38.58;20.42;;;8.30;99.90;;;;;;5098630;28;20028;-74
2021/03/08 11:13:32;;;;;;;40.03;20.88;;;8.40;99.90;;;;;;5100278;28;20028;-75
2021/03/08 11:16:08;;;;;;;37.97;20.83;;;8.30;99.90;;;;;;5101505;28;20024;-74
2021/03/08 11:18:34;;;;;;;40.90;21.15;;;8.40;99.90;;;;;;5099746;28;20011;-74
2021/03/08 11:21:30;;;;;;;37.42;20.63;;;8.40;99.90;;;;;;5101599;28;20072;-74
2021/03/08 11:24:20;;;;;;;47.90;22.48;;;8.50;99.90;;;;;;5097183;28;20028;-74
2021/03/08 11:27:08;;;;;;;47.55;25.08;;;8.70;99.90;;;;;;5098271;28;20024;-74
2021/03/08 11:29:33;;;;;;;33.92;19.95;;;8.80;99.90;;;;;;5093252;28;20070;-75
2021/03/08 11:31:59;;;;;;;38.65;20.75;;;8.90;99.90;;;;;;5098115;28;20028;-74
2021/03/08 11:34:43;;;;;;;37.63;20.90;;;9.20;99.90;;;;;;5098576;28;20024;-75
2021/03/08 11:37:14;;;;;;;33.33;19.27;;;9.30;99.90;;;;;;5096100;28;20050;-73
2021/03/08 11:39:43;;;;;;;36.80;19.30;;;9.40;99.90;;;;;;5094540;28;20467;-73
2021/03/08 11:42:09;;;;;;;34.00;19.63;;;9.40;99.90;;;;;;5097591;28;20138;-75
2021/03/08 11:44:36;;;;;;;33.88;18.80;;;9.50;99.90;;;;;;5097195;28;20463;-75
2021/03/08 11:47:02;;;;;;;32.63;18.08;;;9.50;99.90;;;;;;5094832;28;20123;-75
2021/03/08 11:49:28;;;;;;;27.50;15.73;;;9.50;99.90;;;;;;5096640;28;20025;-74
2021/03/08 11:51:53;;;;;;;31.92;17.67;;;9.50;99.90;;;;;;5100877;28;20417;-74
2021/03/08 11:54:19;;;;;;;28.20;18.15;;;9.40;99.90;;;;;;5099227;28;20027;-75
2021/03/08 11:56:45;;;;;;;30.75;17.48;;;9.40;99.90;;;;;;5105808;28;20027;-74
2021/03/08 11:59:11;;;;;;;31.83;18.77;;;9.50;99.90;;;;;;5106580;28;20475;-76
2021/03/08 12:01:36;;;;;;;34.63;19.10;;;9.60;99.90;;;;;;5103942;28;20059;-74
2021/03/08 12:04:02;;;;;;;32.53;18.52;;;9.80;99.90;;;;;;5100410;28;20498;-77
2021/03/08 12:06:28;;;;;;;32.50;18.63;;;9.90;99.90;;;;;;5109074;28;20107;-74
2021/03/08 12:08:55;;;;;;;37.22;19.83;;;10.00;99.80;;;;;;5108985;28;20038;-73
2021/03/08 12:11:20;;;;;;;34.13;19.17;;;10.00;99.70;;;;;;5111829;28;20039;-75
2021/03/08 12:13:46;;;;;;;32.63;18.92;;;10.10;99.90;;;;;;5113537;28;20447;-75
2021/03/08 12:16:11;;;;;;;37.38;19.73;;;10.20;99.60;;;;;;5108723;28;20490;-74
2021/03/08 12:18:37;;;;;;;31.67;18.65;;;10.20;98.70;;;;;;5113755;28;20023;-75
2021/03/08 12:21:03;;;;;;;32.78;17.55;;;10.20;98.80;;;;;;5115414;28;20034;-74
2021/03/08 12:23:29;;;;;;;35.35;18.63;;;10.10;97.50;;;;;;5112929;28;20020;-74
2021/03/08 12:25:54;;;;;;;28.63;17.65;;;10.00;98.00;;;;;;5110381;28;20069;-74
2021/03/08 12:28:20;;;;;;;33.58;18.80;;;9.90;98.50;;;;;;5114492;28;20019;-74
2021/03/08 12:30:46;;;;;;;29.05;18.27;;;9.80;98.50;;;;;;5113844;28;20130;-74
2021/03/08 12:33:11;;;;;;;30.48;18.65;;;9.70;98.20;;;;;;5114990;28;20743;-74
2021/03/08 12:35:37;;;;;;;34.67;19.02;;;9.70;99.20;;;;;;5118052;28;20505;-75
2021/03/08 12:38:03;;;;;;;36.42;19.85;;;9.80;99.10;;;;;;5117156;28;20051;-74
2021/03/08 12:40:28;;;;;;;30.25;17.60;;;10.00;98.90;;;;;;5106021;28;20024;-75
2021/03/08 12:42:54;;;;;;;33.15;18.35;;;10.10;98.90;;;;;;5107138;28;20040;-75
2021/03/08 12:45:19;;;;;;;35.38;20.58;;;10.10;97.90;;;;;;5112008;28;20107;-76
2021/03/08 12:47:45;;;;;;;35.80;20.73;;;10.00;97.50;;;;;;5104870;28;20085;-74
2021/03/08 12:50:11;;;;;;;38.60;19.08;;;10.10;97.20;;;;;;5095747;28;20416;-75
2021/03/08 12:52:37;;;;;;;32.13;19.73;;;10.10;97.60;;;;;;5101305;28;20043;-75